Welcome to Des Moines Iowa Weather. I am an independent private personal weather station on the Northwest Side of Des Moines, Iowa. Just East of Windsor Heights and just West of Glendale . This site is also mobile friendly.

There are no active watches, warnings or advisories


Visit our other weather sites:

Historical Data

Weather Station Setup



Weather Underground History page Text

Daily Summary for April 21, 2017 Units:  English    Metric   Both
« Previous Day
Next Day »
Daily Weekly Monthly Yearly Custom
  High: Low: Average:
Temperature: 60.1 °F 38.7 °F 50.5 °F
Dew Point: 41.0 °F 35.0 °F 38.2 °F
Humidity: 94 % 40 % 66 %
Wind Speed: 9.0 mph 0.0 mph 1.5 mph
Wind Gust: 15.0 mph - -
Wind:- - ENE
Pressure: 30.17 in 30.08 in -
Precipitation: 0.00 in    
Historical Graphs
 
 
Tabular Data for April 21, 2017
Time Temperature Dew Point Pressure Wind Wind Speed Wind Gust Humidity Rainfall Rate (Hourly)
00:04 45.4 °F 41.0 °F 30.11 in Calm     84 % 0.00 in
00:19 45.1 °F 41.0 °F 30.12 in Calm     84 % 0.00 in
00:34 44.8 °F 41.0 °F 30.12 in Calm   1.0 mph 85 % 0.00 in
00:49 44.6 °F 41.0 °F 30.12 in Calm     86 % 0.00 in
01:04 44.7 °F 41.0 °F 30.12 in Calm     86 % 0.00 in
01:19 44.7 °F 41.0 °F 30.12 in Calm     86 % 0.00 in
01:34 44.6 °F 41.0 °F 30.12 in Calm     86 % 0.00 in
01:49 44.2 °F 40.0 °F 30.12 in Calm     86 % 0.00 in
02:04 43.9 °F 40.0 °F 30.11 in Calm     86 % 0.00 in
02:19 43.5 °F 40.0 °F 30.11 in Calm     87 % 0.00 in
02:34 43.2 °F 40.0 °F 30.10 in Calm     87 % 0.00 in
02:49 42.9 °F 40.0 °F 30.10 in Calm     88 % 0.00 in
03:04 42.6 °F 39.0 °F 30.09 in Calm     88 % 0.00 in
03:19 42.2 °F 39.0 °F 30.09 in North 2.0 mph 3.0 mph 89 % 0.00 in
03:34 42.1 °F 39.0 °F 30.10 in Calm   2.0 mph 90 % 0.00 in
03:49 42.2 °F 40.0 °F 30.11 in Calm   3.0 mph 90 % 0.00 in
04:04 42.1 °F 40.0 °F 30.11 in Calm     91 % 0.00 in
04:19 41.9 °F 40.0 °F 30.12 in Calm     91 % 0.00 in
04:34 41.6 °F 39.0 °F 30.12 in Calm     90 % 0.00 in
04:49 41.1 °F 38.0 °F 30.12 in Calm     90 % 0.00 in
05:04 40.5 °F 38.0 °F 30.11 in Calm     90 % 0.00 in
05:19 40.2 °F 38.0 °F 30.12 in Calm     91 % 0.00 in
05:34 40.1 °F 38.0 °F 30.12 in Calm     91 % 0.00 in
05:49 39.9 °F 38.0 °F 30.13 in Calm     91 % 0.00 in
06:04 39.6 °F 37.0 °F 30.14 in Calm     91 % 0.00 in
06:19 39.3 °F 37.0 °F 30.15 in Calm     92 % 0.00 in
06:34 39.0 °F 37.0 °F 30.16 in Calm     92 % 0.00 in
06:49 38.7 °F 37.0 °F 30.16 in Calm     92 % 0.00 in
07:04 39.1 °F 37.0 °F 30.15 in Calm   2.0 mph 93 % 0.00 in
07:20 39.9 °F 38.0 °F 30.17 in NW 1.0 mph 2.0 mph 93 % 0.00 in
07:35 41.3 °F 40.0 °F 30.17 in NE 1.0 mph 4.0 mph 94 % 0.00 in
07:50 42.3 °F 41.0 °F 30.16 in Calm   5.0 mph 94 % 0.00 in
08:05 42.8 °F 41.0 °F 30.16 in Calm   4.0 mph 94 % 0.00 in
08:20 43.6 °F 41.0 °F 30.16 in ENE 8.0 mph 9.0 mph 91 % 0.00 in
08:35 44.7 °F 41.0 °F 30.15 in ESE 4.0 mph 9.0 mph 87 % 0.00 in
08:50 45.5 °F 40.0 °F 30.12 in ENE 1.0 mph 8.0 mph 82 % 0.00 in
09:05 46.3 °F 40.0 °F 30.12 in NE 5.0 mph 9.0 mph 79 % 0.00 in
09:20 47.3 °F 40.0 °F 30.12 in NNE 4.0 mph 10.0 mph 75 % 0.00 in
09:35 48.2 °F 39.0 °F 30.14 in NE 2.0 mph 9.0 mph 71 % 0.00 in
09:50 48.9 °F 39.0 °F 30.15 in ENE 4.0 mph 11.0 mph 69 % 0.00 in
10:06 49.6 °F 39.0 °F 30.14 in ENE 2.0 mph 7.0 mph 68 % 0.00 in
10:22 50.4 °F 40.0 °F 30.15 in ENE 5.0 mph 10.0 mph 67 % 0.00 in
10:36 50.9 °F 39.0 °F 30.14 in ENE 6.0 mph 9.0 mph 65 % 0.00 in
10:51 51.6 °F 40.0 °F 30.14 in ENE 2.0 mph 6.0 mph 66 % 0.00 in
11:56 55.8 °F 37.0 °F 30.13 in NNE 3.0 mph 13.0 mph 50 % 0.00 in
12:07 56.4 °F 37.0 °F 30.13 in NNE 4.0 mph 13.0 mph 48 % 0.00 in
12:22 57.0 °F 37.0 °F 30.13 in NE 2.0 mph 12.0 mph 48 % 0.00 in
12:37 57.5 °F 38.0 °F 30.13 in East 1.0 mph 10.0 mph 48 % 0.00 in
12:53 57.9 °F 38.0 °F 30.13 in ENE 2.0 mph 12.0 mph 48 % 0.00 in
13:07 57.8 °F 37.0 °F 30.14 in East 2.0 mph 12.0 mph 46 % 0.00 in
13:22 57.8 °F 39.0 °F 30.13 in ENE 2.0 mph 8.0 mph 49 % 0.00 in
13:37 58.2 °F 38.0 °F 30.13 in East 2.0 mph 12.0 mph 47 % 0.00 in
13:52 58.8 °F 38.0 °F 30.13 in NNE 1.0 mph 11.0 mph 46 % 0.00 in
14:07 59.5 °F 38.0 °F 30.12 in NE 1.0 mph 15.0 mph 45 % 0.00 in
14:22 59.6 °F 37.0 °F 30.12 in North 1.0 mph 10.0 mph 44 % 0.00 in
14:37 59.5 °F 37.0 °F 30.12 in East 1.0 mph 12.0 mph 44 % 0.00 in
14:52 59.7 °F 38.0 °F 30.12 in ESE 2.0 mph 13.0 mph 44 % 0.00 in
15:07 59.9 °F 38.0 °F 30.11 in NNE 3.0 mph 9.0 mph 44 % 0.00 in
15:22 60.0 °F 38.0 °F 30.10 in North 1.0 mph 13.0 mph 44 % 0.00 in
15:37 60.1 °F 36.0 °F 30.10 in NNE 3.0 mph 10.0 mph 41 % 0.00 in
15:52 59.7 °F 36.0 °F 30.09 in ENE 2.0 mph 10.0 mph 41 % 0.00 in
16:07 59.5 °F 36.0 °F 30.09 in ENE 7.0 mph 11.0 mph 41 % 0.00 in
16:22 59.1 °F 35.0 °F 30.08 in ENE 2.0 mph 13.0 mph 40 % 0.00 in
16:37 59.1 °F 35.0 °F 30.09 in East 3.0 mph 10.0 mph 41 % 0.00 in
16:52 58.9 °F 36.0 °F 30.10 in NE 4.0 mph 11.0 mph 42 % 0.00 in
17:07 58.9 °F 35.0 °F 30.10 in ENE 6.0 mph 12.0 mph 41 % 0.00 in
17:23 58.6 °F 35.0 °F 30.09 in Calm   11.0 mph 42 % 0.00 in
17:37 58.2 °F 35.0 °F 30.09 in NE 9.0 mph 14.0 mph 42 % 0.00 in
17:52 57.9 °F 35.0 °F 30.09 in NE 2.0 mph 11.0 mph 42 % 0.00 in
18:07 57.9 °F 35.0 °F 30.10 in NE 5.0 mph 9.0 mph 43 % 0.00 in
18:22 57.7 °F 35.0 °F 30.10 in Calm   12.0 mph 43 % 0.00 in
18:37 57.5 °F 36.0 °F 30.10 in Calm   9.0 mph 44 % 0.00 in
18:52 57.2 °F 36.0 °F 30.11 in ENE 3.0 mph 12.0 mph 45 % 0.00 in
19:07 57.0 °F 36.0 °F 30.11 in NE 3.0 mph 9.0 mph 46 % 0.00 in
19:23 56.7 °F 36.0 °F 30.11 in ENE 4.0 mph 9.0 mph 46 % 0.00 in
19:38 56.4 °F 36.0 °F 30.11 in Calm   9.0 mph 46 % 0.00 in
19:53 56.2 °F 36.0 °F 30.11 in ENE 2.0 mph 10.0 mph 47 % 0.00 in
20:08 55.8 °F 37.0 °F 30.11 in ENE 2.0 mph 7.0 mph 49 % 0.00 in
20:23 55.5 °F 37.0 °F 30.12 in ENE 1.0 mph 7.0 mph 50 % 0.00 in
20:38 55.2 °F 38.0 °F 30.12 in Calm   6.0 mph 52 % 0.00 in
20:53 55.0 °F 37.0 °F 30.12 in Calm   5.0 mph 52 % 0.00 in
21:08 54.8 °F 38.0 °F 30.13 in Calm   6.0 mph 53 % 0.00 in
21:23 54.5 °F 38.0 °F 30.13 in ENE 2.0 mph 5.0 mph 54 % 0.00 in
21:38 54.2 °F 38.0 °F 30.13 in NE 3.0 mph 8.0 mph 54 % 0.00 in
21:53 53.9 °F 38.0 °F 30.13 in Calm   6.0 mph 55 % 0.00 in
22:08 53.7 °F 38.0 °F 30.13 in NNE 3.0 mph 8.0 mph 56 % 0.00 in
22:23 53.4 °F 38.0 °F 30.13 in ENE 2.0 mph 5.0 mph 56 % 0.00 in
22:38 53.2 °F 38.0 °F 30.14 in Calm   4.0 mph 57 % 0.00 in
22:53 52.9 °F 38.0 °F 30.13 in Calm   6.0 mph 58 % 0.00 in
23:08 52.6 °F 38.0 °F 30.14 in Calm   3.0 mph 59 % 0.00 in
23:23 52.3 °F 39.0 °F 30.14 in Calm   5.0 mph 60 % 0.00 in
23:38 52.0 °F 39.0 °F 30.14 in Calm   3.0 mph 61 % 0.00 in
23:53 51.7 °F 39.0 °F 30.14 in NNE 1.0 mph 4.0 mph 62 % 0.00 in
Des Moines Weather and Climate
Compliments of Weather Underground - 3 mb

Script developed by  Jim McMurry - jmcmurry@mwt.net Adapted for the template by  Wim van der Kuil - Leuven-Template.eu

You find our weather info also at:

Weather Underground

Equipment we use:

Weather-station
Davis VP2 Plus

Weather-program
Davis Weatherlink.Com

Weather-server
iMac (Retina 4K, 21.5-inch, Late 2015)

Provider
Hostmonster.com

Davis VP2 Plus

Davis Weatherlink.Com

iMac (Retina 4K, 21.5-inch, Late 2015)

Hostmonster.com